Time;durP1;ratioP1;P1;durP2;ratioP2;P2;SDS_P1;SDS_P2;PMS_P1;PMS_P2;Temp;Humidity;BMP_temperature;BMP_pressure;BME280_temperature;BME280_humidity;BME280_pressure;Samples;Min_cycle;Max_cycle;Signal;HPM_P1;HPM_P2
2023/06/03 00:02:13;;;;;;;2.80;1.08;;;11.80;99.90;;;;;;5137709;27;20062;-66
2023/06/03 00:04:41;;;;;;;1.92;1.02;;;11.80;99.90;;;;;;5133613;27;20051;-66
2023/06/03 00:07:08;;;;;;;2.65;1.00;;;11.80;99.90;;;;;;5133877;27;20425;-66
2023/06/03 00:09:34;;;;;;;1.75;0.98;;;11.70;99.90;;;;;;5133603;27;20051;-66
2023/06/03 00:12:00;;;;;;;2.08;1.02;;;11.70;99.90;;;;;;5150106;27;20049;-66
2023/06/03 00:14:25;;;;;;;2.60;0.80;;;11.70;99.90;;;;;;5142611;27;20043;-66
2023/06/03 00:16:52;;;;;;;2.47;0.90;;;11.60;99.90;;;;;;5126628;27;20096;-66
2023/06/03 00:19:18;;;;;;;2.97;1.10;;;11.60;99.90;;;;;;5150931;27;20099;-66
2023/06/03 00:21:45;;;;;;;1.70;0.90;;;11.60;99.90;;;;;;5123971;27;20047;-66
2023/06/03 00:24:14;;;;;;;2.53;0.90;;;11.50;99.90;;;;;;5146998;27;20035;-66
2023/06/03 00:26:40;;;;;;;2.10;1.10;;;11.50;99.90;;;;;;5151326;27;20134;-66
2023/06/03 00:29:06;;;;;;;2.47;0.90;;;11.40;99.90;;;;;;5150102;27;20119;-66
2023/06/03 00:31:31;;;;;;;2.03;1.10;;;11.30;99.90;;;;;;5129485;27;20058;-66
2023/06/03 00:33:57;;;;;;;1.83;0.68;;;11.20;99.90;;;;;;5136791;27;20050;-66
2023/06/03 00:36:23;;;;;;;4.63;0.98;;;11.10;99.90;;;;;;5143479;27;20149;-66
2023/06/03 00:38:48;;;;;;;2.05;0.98;;;11.10;99.90;;;;;;5137240;27;20042;-66
2023/06/03 00:41:14;;;;;;;2.20;0.90;;;11.00;99.90;;;;;;5137760;27;20043;-66
2023/06/03 00:43:40;;;;;;;2.75;0.80;;;11.00;99.90;;;;;;5115136;28;20073;-66
2023/06/03 00:46:08;;;;;;;3.25;0.80;;;11.00;99.90;;;;;;5145617;27;20037;-66
2023/06/03 00:48:34;;;;;;;2.67;0.75;;;11.10;99.90;;;;;;5152382;27;20069;-66
2023/06/03 00:51:00;;;;;;;1.85;0.90;;;11.10;99.90;;;;;;5132122;27;20118;-66
2023/06/03 00:53:25;;;;;;;3.03;1.23;;;11.00;99.90;;;;;;5146504;27;20082;-66
2023/06/03 00:55:51;;;;;;;1.73;0.88;;;11.00;99.90;;;;;;5158274;27;20062;-66
2023/06/03 00:58:17;;;;;;;1.80;0.80;;;11.00;99.90;;;;;;5141812;27;20035;-66
2023/06/03 01:00:42;;;;;;;1.95;0.80;;;10.90;99.90;;;;;;5130504;27;20039;-66
2023/06/03 01:03:13;;;;;;;1.45;0.82;;;10.90;99.90;;;;;;5152053;27;20121;-66
2023/06/03 01:05:45;;;;;;;1.48;0.75;;;10.80;99.90;;;;;;5158355;27;20072;-66
2023/06/03 01:08:31;;;;;;;1.98;0.88;;;10.80;99.90;;;;;;5120983;27;20082;-65
2023/06/03 01:11:25;;;;;;;1.52;0.65;;;10.70;99.90;;;;;;5135202;27;20039;-65
2023/06/03 01:13:57;;;;;;;1.55;0.65;;;10.70;99.90;;;;;;5137552;27;20122;-66
2023/06/03 01:16:25;;;;;;;1.67;0.60;;;10.70;99.90;;;;;;5126444;27;20077;-66
2023/06/03 01:18:52;;;;;;;3.75;0.70;;;10.80;99.90;;;;;;5150718;27;20114;-66
2023/06/03 01:21:18;;;;;;;1.27;0.70;;;10.80;99.90;;;;;;5118831;27;20046;-66
2023/06/03 01:23:45;;;;;;;1.00;0.68;;;10.90;99.90;;;;;;5137251;27;20391;-66
2023/06/03 01:26:11;;;;;;;2.15;0.90;;;10.90;99.90;;;;;;5136378;27;20114;-66
2023/06/03 01:28:38;;;;;;;3.67;0.68;;;10.90;99.90;;;;;;5145958;27;20127;-66
2023/06/03 01:31:05;;;;;;;1.90;0.80;;;10.90;99.90;;;;;;5148346;27;20042;-66
2023/06/03 01:33:32;;;;;;;1.55;0.70;;;10.90;99.90;;;;;;5125396;27;20058;-66
2023/06/03 01:36:00;;;;;;;2.10;0.90;;;10.90;99.90;;;;;;5149664;27;20035;-66
2023/06/03 01:38:26;;;;;;;1.65;0.80;;;10.90;99.90;;;;;;5157549;27;20082;-66
2023/06/03 01:40:52;;;;;;;1.55;0.90;;;10.80;99.90;;;;;;5155161;27;20075;-66
2023/06/03 01:43:19;;;;;;;1.88;0.70;;;10.80;99.90;;;;;;5123908;27;20095;-66
2023/06/03 01:45:45;;;;;;;2.90;0.95;;;10.80;99.90;;;;;;5134510;27;20391;-66
2023/06/03 01:48:11;;;;;;;1.45;0.70;;;10.70;99.90;;;;;;5133756;27;20058;-66
2023/06/03 01:50:41;;;;;;;2.83;0.68;;;10.70;99.90;;;;;;5141806;27;20050;-66
2023/06/03 01:53:08;;;;;;;1.60;0.80;;;10.70;99.90;;;;;;5129859;27;20047;-66
2023/06/03 01:55:33;;;;;;;1.58;0.60;;;10.60;99.90;;;;;;5137422;27;20394;-66
2023/06/03 01:57:59;;;;;;;2.03;0.80;;;10.60;99.90;;;;;;5136087;27;20053;-66
2023/06/03 02:00:25;;;;;;;2.22;0.80;;;10.60;99.90;;;;;;5151325;27;20039;-66
2023/06/03 02:02:51;;;;;;;2.22;0.75;;;10.50;99.90;;;;;;5136371;27;20047;-66
2023/06/03 02:05:16;;;;;;;1.10;0.60;;;10.50;99.90;;;;;;5136270;27;20080;-66
2023/06/03 02:07:42;;;;;;;2.72;0.90;;;10.50;99.90;;;;;;5126747;27;20051;-66
2023/06/03 02:10:08;;;;;;;1.45;0.70;;;10.40;99.90;;;;;;5125888;27;20050;-66
2023/06/03 02:12:34;;;;;;;2.42;1.05;;;10.40;99.90;;;;;;5136618;27;20043;-66
2023/06/03 02:15:00;;;;;;;1.98;0.80;;;10.40;99.90;;;;;;5117763;27;20398;-67
2023/06/03 02:17:26;;;;;;;1.70;0.88;;;10.40;99.90;;;;;;5157092;27;20099;-66
2023/06/03 02:19:53;;;;;;;2.97;0.90;;;10.40;99.90;;;;;;5126727;27;20502;-66
2023/06/03 02:22:19;;;;;;;2.05;0.80;;;10.40;99.90;;;;;;5152425;27;20458;-67
2023/06/03 02:24:48;;;;;;;2.83;0.68;;;10.30;99.90;;;;;;5117935;27;20075;-66
2023/06/03 02:27:24;;;;;;;1.80;0.90;;;10.30;99.90;;;;;;5135717;27;20089;-66
2023/06/03 02:29:51;;;;;;;2.70;0.80;;;10.30;99.90;;;;;;5135273;27;20456;-66
2023/06/03 02:32:18;;;;;;;5.28;0.98;;;10.20;99.90;;;;;;5135606;27;20042;-66
2023/06/03 02:34:44;;;;;;;6.13;1.00;;;10.20;99.90;;;;;;5141368;27;20039;-66
2023/06/03 02:37:10;;;;;;;4.32;1.00;;;10.10;99.90;;;;;;5144688;27;20043;-66
2023/06/03 02:39:36;;;;;;;2.50;0.85;;;10.10;99.90;;;;;;5135780;27;20055;-66
2023/06/03 02:42:03;;;;;;;1.75;0.88;;;10.10;99.90;;;;;;5135259;27;20049;-66
2023/06/03 02:44:29;;;;;;;1.60;0.70;;;10.10;99.90;;;;;;5135405;27;20047;-66
2023/06/03 02:46:55;;;;;;;2.60;0.90;;;10.00;99.90;;;;;;5135683;27;20050;-66
2023/06/03 02:49:20;;;;;;;1.30;0.70;;;10.00;99.90;;;;;;5135442;27;20039;-66
2023/06/03 02:51:46;;;;;;;3.33;1.00;;;10.00;99.90;;;;;;5133722;27;20038;-66
2023/06/03 02:54:12;;;;;;;2.67;0.73;;;10.00;99.90;;;;;;5127626;27;20407;-66
2023/06/03 02:56:38;;;;;;;2.60;0.77;;;9.90;99.90;;;;;;5130652;27;20043;-66
2023/06/03 02:59:05;;;;;;;1.80;0.82;;;9.90;99.90;;;;;;5134416;27;20043;-66
2023/06/03 03:01:31;;;;;;;1.30;0.65;;;9.80;99.90;;;;;;5134987;27;20043;-66
2023/06/03 03:03:57;;;;;;;1.83;1.00;;;9.80;99.90;;;;;;5116666;27;20497;-66
2023/06/03 03:06:24;;;;;;;1.42;0.90;;;9.70;99.90;;;;;;5135053;27;20108;-66
2023/06/03 03:08:50;;;;;;;2.22;0.80;;;9.60;99.90;;;;;;5135052;27;20047;-66
2023/06/03 03:11:16;;;;;;;5.80;1.00;;;9.50;99.90;;;;;;5133853;27;20086;-66
2023/06/03 03:13:43;;;;;;;1.40;0.70;;;9.50;99.90;;;;;;5134250;27;20065;-66
2023/06/03 03:16:09;;;;;;;1.52;0.75;;;9.40;99.90;;;;;;5134070;27;20047;-66
2023/06/03 03:18:36;;;;;;;1.98;0.80;;;9.30;99.90;;;;;;5148638;27;20042;-66
2023/06/03 03:21:03;;;;;;;1.88;1.02;;;9.20;99.90;;;;;;5142108;27;20055;-66
2023/06/03 03:23:29;;;;;;;3.03;0.93;;;9.10;99.90;;;;;;5152188;27;20051;-66
2023/06/03 03:25:59;;;;;;;2.20;0.80;;;9.10;99.90;;;;;;5155284;27;20035;-66
2023/06/03 03:28:25;;;;;;;1.50;0.90;;;9.10;99.90;;;;;;5140068;27;20068;-66
2023/06/03 03:30:51;;;;;;;1.92;0.80;;;9.00;99.90;;;;;;5138403;27;20473;-66
2023/06/03 03:33:17;;;;;;;1.88;0.70;;;9.00;99.90;;;;;;5116352;27;20071;-66
2023/06/03 03:35:43;;;;;;;2.45;0.95;;;9.00;99.90;;;;;;5134273;27;20047;-66
2023/06/03 03:38:09;;;;;;;1.65;0.90;;;9.10;99.90;;;;;;5134240;27;20031;-66
2023/06/03 03:40:38;;;;;;;1.92;0.80;;;9.10;99.90;;;;;;5116147;27;20042;-66
2023/06/03 03:43:09;;;;;;;2.88;0.90;;;9.10;99.90;;;;;;5134284;27;20384;-66
2023/06/03 03:45:36;;;;;;;2.45;0.85;;;9.10;99.90;;;;;;5134080;27;20039;-66
2023/06/03 03:48:08;;;;;;;4.65;1.05;;;9.20;99.90;;;;;;5132585;27;20526;-66
2023/06/03 03:50:41;;;;;;;1.98;0.88;;;9.20;99.90;;;;;;5119695;27;20453;-66
2023/06/03 03:53:09;;;;;;;1.98;0.85;;;9.20;99.90;;;;;;5127461;27;20043;-66
2023/06/03 03:55:47;;;;;;;2.00;1.00;;;9.20;99.90;;;;;;5101762;27;20071;-66
2023/06/03 03:58:26;;;;;;;2.03;1.00;;;9.20;99.90;;;;;;5143560;27;20171;-66
2023/06/03 04:00:54;;;;;;;1.80;0.95;;;9.20;99.90;;;;;;5150788;27;20479;-66
2023/06/03 04:03:23;;;;;;;2.65;1.00;;;9.20;99.90;;;;;;5129075;27;20043;-66
2023/06/03 04:05:50;;;;;;;2.28;0.90;;;9.20;99.90;;;;;;5133904;27;20113;-66
2023/06/03 04:08:35;;;;;;;1.98;1.00;;;9.20;99.90;;;;;;5130910;27;20054;-66
2023/06/03 04:11:01;;;;;;;1.90;0.98;;;9.30;99.90;;;;;;5133241;27;20487;-66
2023/06/03 04:13:27;;;;;;;2.17;1.20;;;9.30;99.90;;;;;;5134029;27;20084;-66
2023/06/03 04:15:53;;;;;;;1.98;0.95;;;9.30;99.90;;;;;;5135155;27;20043;-66
2023/06/03 04:18:20;;;;;;;1.75;0.88;;;9.30;99.90;;;;;;5154724;27;20528;-66
2023/06/03 04:20:48;;;;;;;2.13;0.90;;;9.30;99.90;;;;;;5119819;27;20051;-66
2023/06/03 04:23:20;;;;;;;3.20;0.90;;;9.30;99.90;;;;;;5145924;27;20152;-66
2023/06/03 04:25:46;;;;;;;2.20;0.95;;;9.30;99.90;;;;;;5154327;27;20061;-66
2023/06/03 04:28:13;;;;;;;2.30;1.30;;;9.30;99.90;;;;;;5121259;27;20122;-66
2023/06/03 04:30:38;;;;;;;2.20;1.10;;;9.40;99.90;;;;;;5115099;28;20125;-66
2023/06/03 04:33:05;;;;;;;2.08;1.00;;;9.40;99.90;;;;;;5149270;27;20172;-66
2023/06/03 04:35:30;;;;;;;1.92;0.90;;;9.50;99.90;;;;;;5130120;28;20039;-66
2023/06/03 04:37:59;;;;;;;1.95;0.80;;;9.50;99.90;;;;;;5122766;27;20034;-66
2023/06/03 04:40:26;;;;;;;1.63;1.02;;;9.60;99.90;;;;;;5122340;28;20043;-66
2023/06/03 04:42:53;;;;;;;1.80;1.00;;;9.60;99.90;;;;;;5115318;27;20407;-66
2023/06/03 04:45:23;;;;;;;2.55;1.00;;;9.70;99.90;;;;;;5134098;28;20042;-66
2023/06/03 04:47:58;;;;;;;1.70;1.00;;;9.80;99.90;;;;;;5150680;27;20046;-66
2023/06/03 04:50:24;;;;;;;2.67;0.90;;;9.90;99.90;;;;;;5154358;27;20486;-66
2023/06/03 04:52:51;;;;;;;2.83;1.08;;;9.90;99.90;;;;;;5114309;27;20043;-66
2023/06/03 04:55:16;;;;;;;1.92;1.00;;;10.10;99.90;;;;;;5128227;28;20127;-66
2023/06/03 04:57:47;;;;;;;2.75;1.10;;;10.20;99.90;;;;;;5133045;27;20483;-66
2023/06/03 05:00:16;;;;;;;2.42;1.02;;;10.30;99.90;;;;;;5115111;28;20507;-66
2023/06/03 05:02:44;;;;;;;2.20;1.00;;;10.40;99.90;;;;;;5098501;28;20051;-66
2023/06/03 05:05:10;;;;;;;1.92;1.10;;;10.40;99.90;;;;;;5101737;28;20052;-66
2023/06/03 05:07:37;;;;;;;2.72;1.10;;;10.60;99.90;;;;;;5133420;27;20043;-66
2023/06/03 05:10:03;;;;;;;1.77;1.10;;;10.70;99.90;;;;;;5132885;27;20509;-66
2023/06/03 05:12:29;;;;;;;2.38;1.15;;;10.80;99.90;;;;;;5142530;27;20043;-66
2023/06/03 05:14:55;;;;;;;1.95;1.02;;;10.90;99.90;;;;;;5118664;28;20062;-66
2023/06/03 05:17:21;;;;;;;2.42;1.05;;;11.00;99.90;;;;;;5143708;27;20129;-66
2023/06/03 05:19:46;;;;;;;2.55;1.10;;;11.20;99.90;;;;;;5120388;28;20126;-66
2023/06/03 05:22:12;;;;;;;1.80;0.90;;;11.30;99.90;;;;;;5151262;27;20043;-66
2023/06/03 05:24:38;;;;;;;1.63;0.85;;;11.50;99.90;;;;;;5134033;27;20526;-66
2023/06/03 05:27:04;;;;;;;2.70;0.95;;;11.60;99.90;;;;;;5124580;27;20499;-66
2023/06/03 05:29:29;;;;;;;1.75;0.90;;;11.70;99.90;;;;;;5118448;27;20083;-66
2023/06/03 05:31:55;;;;;;;3.60;1.20;;;11.80;99.90;;;;;;5115001;27;20603;-66
2023/06/03 05:34:21;;;;;;;1.42;0.80;;;12.00;99.90;;;;;;5139511;27;20038;-66
2023/06/03 05:36:46;;;;;;;1.95;0.80;;;12.10;99.90;;;;;;5131126;27;20043;-66
2023/06/03 05:39:12;;;;;;;2.55;1.00;;;12.30;99.90;;;;;;5118887;27;20051;-66
2023/06/03 05:41:38;;;;;;;2.75;1.10;;;12.40;99.90;;;;;;5118363;27;20039;-66
2023/06/03 05:44:03;;;;;;;2.63;0.95;;;12.50;99.90;;;;;;5101252;27;20039;-66
2023/06/03 05:46:29;;;;;;;2.95;0.90;;;12.70;99.90;;;;;;5136541;27;20122;-66
2023/06/03 05:48:55;;;;;;;3.45;0.80;;;12.80;99.90;;;;;;5118679;27;20055;-66
2023/06/03 05:51:21;;;;;;;2.90;1.15;;;12.90;99.90;;;;;;5136746;27;20047;-66
2023/06/03 05:53:46;;;;;;;1.45;0.80;;;13.00;99.90;;;;;;5118649;27;20047;-66
2023/06/03 05:56:12;;;;;;;1.58;0.90;;;13.10;99.90;;;;;;5117973;27;20047;-66
2023/06/03 05:58:40;;;;;;;1.98;0.98;;;13.20;99.90;;;;;;5146374;27;20121;-65
2023/06/03 06:01:06;;;;;;;1.88;0.90;;;13.30;99.90;;;;;;5121514;27;20070;-66
2023/06/03 06:03:32;;;;;;;2.38;0.70;;;13.40;99.90;;;;;;5133921;27;20494;-66
2023/06/03 06:05:59;;;;;;;1.75;0.80;;;13.50;99.90;;;;;;5151189;27;20046;-66
2023/06/03 06:08:25;;;;;;;3.67;0.90;;;13.60;99.90;;;;;;5128763;27;20406;-66
2023/06/03 06:10:51;;;;;;;2.03;0.88;;;13.70;99.90;;;;;;5136369;27;20057;-67
2023/06/03 06:13:16;;;;;;;2.78;1.00;;;13.80;99.90;;;;;;5130078;27;20035;-68
2023/06/03 06:15:57;;;;;;;3.17;1.10;;;13.90;99.90;;;;;;5136150;27;20407;-66
2023/06/03 06:18:23;;;;;;;2.85;0.90;;;14.10;99.90;;;;;;5135617;27;20487;-66
2023/06/03 06:20:49;;;;;;;1.50;0.80;;;14.10;99.90;;;;;;5117804;27;20049;-66
2023/06/03 06:23:15;;;;;;;2.50;0.93;;;14.20;99.90;;;;;;5136105;27;20053;-66
2023/06/03 06:25:48;;;;;;;3.25;0.80;;;14.40;99.90;;;;;;5117739;27;20051;-66
2023/06/03 06:28:18;;;;;;;4.07;1.17;;;14.50;99.90;;;;;;5140732;27;20050;-66
2023/06/03 06:30:44;;;;;;;1.70;0.90;;;14.70;99.90;;;;;;5143181;27;20058;-66
2023/06/03 06:33:13;;;;;;;2.47;0.70;;;14.80;99.90;;;;;;5135785;27;20123;-66
2023/06/03 06:35:39;;;;;;;1.98;0.77;;;14.80;99.90;;;;;;5151116;27;20050;-63
2023/06/03 06:38:05;;;;;;;1.42;0.80;;;14.80;99.90;;;;;;5147655;27;20482;-63
2023/06/03 06:40:34;;;;;;;1.58;0.75;;;15.00;99.90;;;;;;5135507;27;20043;-63
2023/06/03 06:43:00;;;;;;;2.35;1.02;;;15.20;99.90;;;;;;5142926;27;20050;-63
2023/06/03 06:45:32;;;;;;;2.47;0.80;;;15.40;99.90;;;;;;5138070;27;20039;-63
2023/06/03 06:48:03;;;;;;;1.80;0.80;;;15.60;99.90;;;;;;5156489;27;20091;-63
2023/06/03 06:50:41;;;;;;;2.13;0.60;;;15.70;99.90;;;;;;5156150;27;20125;-63
2023/06/03 06:53:07;;;;;;;1.58;0.60;;;15.70;99.90;;;;;;5156379;27;20497;-63
2023/06/03 06:55:41;;;;;;;1.45;0.63;;;15.80;99.90;;;;;;5156112;27;20046;-63
2023/06/03 06:58:10;;;;;;;1.60;0.60;;;15.90;99.90;;;;;;5155750;27;20038;-63
2023/06/03 07:00:36;;;;;;;1.33;0.60;;;16.10;99.90;;;;;;5155627;27;20046;-63
2023/06/03 07:03:02;;;;;;;1.67;0.70;;;16.20;99.90;;;;;;5155659;27;20053;-63
2023/06/03 07:05:28;;;;;;;1.17;0.60;;;16.30;99.90;;;;;;5146267;27;20043;-63
2023/06/03 07:07:53;;;;;;;1.75;0.80;;;16.40;99.90;;;;;;5135164;27;20043;-63
2023/06/03 07:10:20;;;;;;;1.67;0.70;;;16.40;99.90;;;;;;5134914;27;20070;-63
2023/06/03 07:12:51;;;;;;;1.38;0.60;;;16.50;99.90;;;;;;5134892;27;20057;-63
2023/06/03 07:15:17;;;;;;;1.40;0.60;;;16.60;99.90;;;;;;5134944;27;20054;-63
2023/06/03 07:17:51;;;;;;;1.48;0.60;;;16.70;99.90;;;;;;5134615;27;20088;-63
2023/06/03 07:20:20;;;;;;;1.67;0.60;;;16.90;99.90;;;;;;5134938;27;20039;-63
2023/06/03 07:22:46;;;;;;;1.48;0.65;;;17.00;99.90;;;;;;5134728;27;20591;-63
2023/06/03 07:25:41;;;;;;;1.88;0.70;;;17.20;99.90;;;;;;5134986;27;20058;-63
2023/06/03 07:28:10;;;;;;;3.10;0.60;;;17.20;99.90;;;;;;5140621;27;20089;-63
2023/06/03 07:30:37;;;;;;;1.50;0.60;;;17.30;99.90;;;;;;5154715;27;20081;-63
2023/06/03 07:33:05;;;;;;;3.90;0.90;;;17.50;99.90;;;;;;5154978;27;20547;-63
2023/06/03 07:35:33;;;;;;;1.58;0.55;;;17.50;99.90;;;;;;5154833;27;20051;-63
2023/06/03 07:37:59;;;;;;;2.90;0.60;;;17.30;99.90;;;;;;5154770;27;20046;-63
2023/06/03 07:40:46;;;;;;;0.98;0.43;;;17.20;99.90;;;;;;5139072;27;20047;-63
2023/06/03 07:43:12;;;;;;;1.25;0.60;;;17.20;99.90;;;;;;5153441;27;20496;-64
2023/06/03 07:45:38;;;;;;;1.00;0.60;;;17.20;99.90;;;;;;5151718;27;20142;-63
2023/06/03 07:48:07;;;;;;;1.52;0.75;;;17.40;99.90;;;;;;5154071;27;20412;-63
2023/06/03 07:50:33;;;;;;;1.55;0.63;;;17.60;99.90;;;;;;5154356;27;20047;-63
2023/06/03 07:53:00;;;;;;;1.42;0.50;;;17.70;99.90;;;;;;5146396;27;20043;-64
2023/06/03 07:55:46;;;;;;;1.17;0.55;;;17.90;99.90;;;;;;5125451;27;20047;-64
2023/06/03 07:58:12;;;;;;;1.60;0.70;;;18.00;99.90;;;;;;5152683;27;20452;-64
2023/06/03 08:00:43;;;;;;;2.25;0.60;;;18.00;99.90;;;;;;5134383;27;20103;-64
2023/06/03 08:03:12;;;;;;;1.85;0.43;;;17.90;99.90;;;;;;5154391;27;20087;-64
2023/06/03 08:05:38;;;;;;;1.08;0.52;;;17.70;99.90;;;;;;5153812;27;20649;-64
2023/06/03 08:08:05;;;;;;;1.40;0.60;;;17.60;99.90;;;;;;5153619;27;20042;-64
2023/06/03 08:10:33;;;;;;;1.08;0.43;;;17.40;99.90;;;;;;5152494;27;20039;-64
2023/06/03 08:12:59;;;;;;;1.25;0.70;;;17.30;99.90;;;;;;5154017;27;20035;-64
2023/06/03 08:15:27;;;;;;;2.03;0.57;;;17.10;99.90;;;;;;5153424;27;20042;-64
2023/06/03 08:17:54;;;;;;;1.58;0.50;;;17.10;99.90;;;;;;5153686;27;20074;-64
2023/06/03 08:20:26;;;;;;;1.25;0.47;;;17.00;99.90;;;;;;5153056;27;20654;-64
2023/06/03 08:22:53;;;;;;;1.25;0.60;;;17.10;99.90;;;;;;5153726;27;20396;-64
2023/06/03 08:25:18;;;;;;;1.10;0.60;;;17.20;99.90;;;;;;5153823;27;20407;-63
2023/06/03 08:27:45;;;;;;;3.28;0.60;;;17.50;99.90;;;;;;5153847;27;20058;-63
2023/06/03 08:30:12;;;;;;;1.38;0.65;;;17.90;99.90;;;;;;5152827;27;20395;-63
2023/06/03 08:32:39;;;;;;;1.15;0.65;;;18.30;99.90;;;;;;5153807;27;20047;-63
2023/06/03 08:35:07;;;;;;;1.58;0.50;;;18.70;99.90;;;;;;5149118;27;20042;-63
2023/06/03 08:37:33;;;;;;;1.48;0.63;;;19.00;99.90;;;;;;5148635;27;20039;-64
2023/06/03 08:40:06;;;;;;;1.52;0.60;;;19.30;99.90;;;;;;5133026;27;20585;-63
2023/06/03 08:42:41;;;;;;;2.40;0.60;;;19.50;99.90;;;;;;5133394;28;20046;-63
2023/06/03 08:45:08;;;;;;;1.45;0.60;;;19.70;99.90;;;;;;5133139;27;20070;-63
2023/06/03 08:47:53;;;;;;;1.10;0.50;;;19.80;99.90;;;;;;5144914;27;20042;-63
2023/06/03 08:50:24;;;;;;;1.23;0.60;;;19.90;99.90;;;;;;5145792;27;20130;-63
2023/06/03 08:52:54;;;;;;;1.70;0.55;;;20.10;99.90;;;;;;5133831;28;20119;-63
2023/06/03 08:55:21;;;;;;;1.85;0.73;;;20.20;99.90;;;;;;5133436;27;20122;-63
2023/06/03 08:58:07;;;;;;;1.25;0.60;;;20.30;99.90;;;;;;5133534;28;20039;-63
2023/06/03 09:00:34;;;;;;;2.00;0.55;;;20.40;99.90;;;;;;5132099;27;20051;-63
2023/06/03 09:03:01;;;;;;;2.03;0.52;;;20.60;99.90;;;;;;5115069;28;20086;-63
2023/06/03 09:05:28;;;;;;;1.08;0.55;;;20.70;99.90;;;;;;5142711;27;20065;-63
2023/06/03 09:07:54;;;;;;;2.47;0.60;;;20.70;99.90;;;;;;5153826;27;20054;-63
2023/06/03 09:10:25;;;;;;;1.45;0.60;;;20.80;99.90;;;;;;5157597;27;20170;-63
2023/06/03 09:12:55;;;;;;;3.78;0.70;;;20.80;99.90;;;;;;5157719;27;20081;-63
2023/06/03 09:15:22;;;;;;;1.08;0.55;;;20.90;99.90;;;;;;5157192;27;20119;-63
2023/06/03 09:17:48;;;;;;;1.73;0.60;;;21.00;99.90;;;;;;5157470;27;20479;-64
2023/06/03 09:20:14;;;;;;;1.92;0.60;;;21.00;99.90;;;;;;5157304;27;20127;-64
2023/06/03 09:22:42;;;;;;;1.65;0.60;;;21.10;99.90;;;;;;5156516;27;20049;-64
2023/06/03 09:25:08;;;;;;;1.52;0.65;;;21.30;99.90;;;;;;5157081;27;20042;-64
2023/06/03 09:27:35;;;;;;;1.25;0.60;;;21.40;99.90;;;;;;5157259;27;20137;-64
2023/06/03 09:30:04;;;;;;;1.60;0.70;;;21.60;99.90;;;;;;5156269;27;20047;-63
2023/06/03 09:32:30;;;;;;;1.23;0.55;;;21.70;99.90;;;;;;5140080;27;20043;-63
2023/06/03 09:34:57;;;;;;;1.67;0.60;;;21.70;99.90;;;;;;5118216;27;20044;-63
2023/06/03 09:37:22;;;;;;;1.88;0.63;;;21.80;99.90;;;;;;5138730;27;20047;-63
2023/06/03 09:39:48;;;;;;;4.55;0.68;;;21.80;99.90;;;;;;5156084;27;20069;-63
2023/06/03 09:42:15;;;;;;;1.88;0.50;;;21.90;99.90;;;;;;5156764;27;20081;-63
2023/06/03 09:44:55;;;;;;;1.33;0.50;;;21.60;99.90;;;;;;5156401;27;20045;-63
2023/06/03 09:47:21;;;;;;;2.38;0.70;;;21.50;99.90;;;;;;5157143;27;20113;-63
2023/06/03 09:50:09;;;;;;;1.70;0.60;;;21.70;99.90;;;;;;5156745;27;20129;-63
2023/06/03 09:52:36;;;;;;;1.92;0.75;;;21.90;99.90;;;;;;5135228;27;20051;-63
2023/06/03 09:55:07;;;;;;;1.67;0.73;;;22.10;99.90;;;;;;5136039;27;20043;-63
2023/06/03 09:57:34;;;;;;;1.58;0.68;;;22.20;99.90;;;;;;5136153;27;20031;-63
2023/06/03 10:00:18;;;;;;;1.17;0.65;;;22.20;99.90;;;;;;5135271;27;20043;-64
2023/06/03 10:02:44;;;;;;;1.67;0.60;;;22.20;99.20;;;;;;5136348;27;20122;-65
2023/06/03 10:05:29;;;;;;;2.22;0.65;;;22.00;99.90;;;;;;5124184;27;20117;-64
2023/06/03 10:07:56;;;;;;;2.63;0.70;;;21.80;99.30;;;;;;5156998;27;20046;-66
2023/06/03 10:10:23;;;;;;;2.40;0.70;;;21.60;99.70;;;;;;5155909;27;20054;-63
2023/06/03 10:12:50;;;;;;;2.78;0.60;;;21.70;99.80;;;;;;5156213;27;20107;-63
2023/06/03 10:15:38;;;;;;;1.70;0.60;;;21.80;99.30;;;;;;5156489;27;20051;-65
2023/06/03 10:18:05;;;;;;;2.60;0.50;;;22.00;99.10;;;;;;5156264;27;20523;-65
2023/06/03 10:20:39;;;;;;;2.28;0.60;;;22.10;98.70;;;;;;5155534;27;20041;-63
2023/06/03 10:23:07;;;;;;;1.95;0.68;;;22.20;98.70;;;;;;5138941;27;20047;-63
2023/06/03 10:25:41;;;;;;;0.90;0.50;;;22.30;98.30;;;;;;5140377;27;20091;-63
2023/06/03 10:28:09;;;;;;;1.20;0.70;;;22.40;98.00;;;;;;5155917;27;20046;-63
2023/06/03 10:30:36;;;;;;;1.45;0.65;;;22.30;97.30;;;;;;5154125;27;20051;-65
2023/06/03 10:33:06;;;;;;;2.58;0.90;;;22.40;97.40;;;;;;5133857;27;20065;-64
2023/06/03 10:35:34;;;;;;;2.70;0.70;;;22.50;97.70;;;;;;5116958;27;20309;-64
2023/06/03 10:38:03;;;;;;;1.13;0.60;;;22.60;97.70;;;;;;5140398;27;20039;-63
2023/06/03 10:40:29;;;;;;;0.95;0.50;;;22.80;97.60;;;;;;5143548;27;20542;-63
2023/06/03 10:42:56;;;;;;;2.28;0.50;;;23.00;98.20;;;;;;5153318;27;20567;-63
2023/06/03 10:45:27;;;;;;;1.70;0.65;;;23.20;98.30;;;;;;5137689;27;20050;-63
2023/06/03 10:48:00;;;;;;;1.23;0.60;;;23.50;98.10;;;;;;5155749;27;20046;-63
2023/06/03 10:50:47;;;;;;;2.70;0.50;;;23.50;97.40;;;;;;5153325;27;20089;-63
2023/06/03 10:53:49;;;;;;;1.98;0.60;;;23.60;96.80;;;;;;5135257;27;20051;-62
2023/06/03 10:56:36;;;;;;;1.98;0.60;;;23.70;96.70;;;;;;5135400;27;20050;-63
2023/06/03 10:59:03;;;;;;;2.25;0.60;;;23.80;97.40;;;;;;5135012;27;20138;-63
2023/06/03 11:02:01;;;;;;;1.02;0.50;;;23.90;97.40;;;;;;5134573;27;20051;-63
2023/06/03 11:04:37;;;;;;;0.90;0.60;;;23.90;97.20;;;;;;5135768;27;20050;-64
2023/06/03 11:07:27;;;;;;;1.55;0.60;;;24.10;97.20;;;;;;5155473;27;20070;-64
2023/06/03 11:09:56;;;;;;;1.50;0.70;;;24.20;97.20;;;;;;5136976;27;20140;-63
2023/06/03 11:12:49;;;;;;;1.98;0.65;;;24.30;97.70;;;;;;5136890;27;20099;-63
2023/06/03 11:15:15;;;;;;;1.35;0.63;;;24.40;96.30;;;;;;5155435;27;20050;-63
2023/06/03 11:17:47;;;;;;;1.20;0.60;;;24.50;97.40;;;;;;5154918;27;20491;-63
2023/06/03 11:20:37;;;;;;;1.00;0.50;;;24.50;97.20;;;;;;5154773;27;20046;-64
2023/06/03 11:23:02;;;;;;;1.42;0.60;;;24.60;96.30;;;;;;5154864;27;20093;-63
2023/06/03 11:25:29;;;;;;;1.05;0.60;;;24.70;97.10;;;;;;5154852;27;20074;-64
2023/06/03 11:28:27;;;;;;;1.30;0.57;;;24.70;97.20;;;;;;5154910;27;20057;-64
2023/06/03 11:30:56;;;;;;;2.83;0.70;;;24.90;95.40;;;;;;5130831;27;20058;-64
2023/06/03 11:33:21;;;;;;;1.42;0.60;;;24.90;96.40;;;;;;5133667;27;20483;-64
2023/06/03 11:35:47;;;;;;;1.98;0.50;;;25.00;96.20;;;;;;5133977;27;20096;-64
2023/06/03 11:38:13;;;;;;;1.40;0.63;;;25.00;96.00;;;;;;5125715;27;20039;-63
2023/06/03 11:40:44;;;;;;;1.33;0.55;;;25.00;95.80;;;;;;5154800;27;20065;-64
2023/06/03 11:43:10;;;;;;;1.98;0.63;;;25.10;96.00;;;;;;5154921;27;20039;-64
2023/06/03 11:45:38;;;;;;;2.17;0.65;;;25.20;95.80;;;;;;5154553;27;20046;-64
2023/06/03 11:48:07;;;;;;;0.95;0.50;;;25.30;95.50;;;;;;5153865;27;20046;-64
2023/06/03 11:50:48;;;;;;;1.15;0.60;;;25.30;95.60;;;;;;5153894;27;20038;-64
2023/06/03 11:53:46;;;;;;;1.77;0.60;;;25.40;94.30;;;;;;5116131;27;20047;-64
2023/06/03 11:56:13;;;;;;;1.38;0.70;;;25.40;93.20;;;;;;5097431;27;20093;-64
2023/06/03 11:58:42;;;;;;;1.70;0.55;;;25.40;94.70;;;;;;5133772;27;20078;-64
2023/06/03 12:01:17;;;;;;;1.27;0.85;;;25.40;94.40;;;;;;5133015;27;20043;-64
2023/06/03 12:04:03;;;;;;;;;;;25.50;94.60;;;;;;5133477;27;20087;-64
2023/06/03 12:06:36;;;;;;;1.47;0.60;;;25.70;94.80;;;;;;5150921;27;20335;-62
2023/06/03 12:09:02;;;;;;;2.67;0.68;;;25.80;95.40;;;;;;5153997;27;20084;-62
2023/06/03 12:11:33;;;;;;;1.55;0.60;;;25.90;95.40;;;;;;5153912;27;20057;-62
2023/06/03 12:13:59;;;;;;;1.00;0.45;;;26.10;95.50;;;;;;5154431;27;20047;-62
2023/06/03 12:16:35;;;;;;;1.95;0.50;;;26.20;94.40;;;;;;5145569;27;20042;-62
2023/06/03 12:19:03;;;;;;;1.58;0.60;;;26.20;93.70;;;;;;5151385;27;20047;-62
2023/06/03 12:21:30;;;;;;;1.77;0.63;;;26.20;94.30;;;;;;5153477;27;20043;-63
2023/06/03 12:23:56;;;;;;;1.98;0.80;;;26.20;93.90;;;;;;5153216;27;20487;-63
2023/06/03 12:26:24;;;;;;;1.58;0.50;;;26.20;94.00;;;;;;5134412;27;20045;-63
2023/06/03 12:28:50;;;;;;;1.20;0.60;;;26.20;94.10;;;;;;5153410;27;20051;-63
2023/06/03 12:31:17;;;;;;;2.55;0.70;;;26.40;94.00;;;;;;5146779;27;20509;-63
2023/06/03 12:33:46;;;;;;;1.75;0.60;;;26.50;93.70;;;;;;5132726;28;20506;-63
2023/06/03 12:36:13;;;;;;;1.88;0.60;;;26.50;92.40;;;;;;5133353;27;21288;-63
2023/06/03 12:38:59;;;;;;;1.60;0.60;;;26.50;92.90;;;;;;5127788;27;20047;-63
2023/06/03 12:41:25;;;;;;;1.60;0.60;;;26.60;92.20;;;;;;5153346;27;20127;-63
2023/06/03 12:44:04;;;;;;;1.17;0.50;;;26.60;92.10;;;;;;5157665;27;20046;-63
2023/06/03 12:46:30;;;;;;;1.92;0.77;;;26.70;91.80;;;;;;5157711;27;20121;-63
2023/06/03 12:49:10;;;;;;;2.28;0.70;;;26.80;91.90;;;;;;5157982;27;20122;-63
2023/06/03 12:51:36;;;;;;;1.30;0.60;;;26.90;91.30;;;;;;5152846;27;20054;-63
2023/06/03 12:54:05;;;;;;;3.28;0.60;;;26.90;91.40;;;;;;5136391;27;20050;-64
2023/06/03 12:56:33;;;;;;;1.30;0.60;;;27.10;91.50;;;;;;5137490;27;20035;-64
2023/06/03 12:59:00;;;;;;;2.22;0.50;;;27.10;91.50;;;;;;5137210;27;20051;-65